Cessnock, New South Wales

12:38 AM AEDT on January 28, 2015 (GMT +1100)
Aberdare | Change Station
CLOSE
Current Station
Personal Weather Station
Location: Cessnock, N.S.W.
Elevation: 290 ft
Nearby Weather Stations

Elev 290 ft 32.84 °S, 151.37 °E | Updated 22 seconds ago

Overcast
Overcast
63.5 °F
Feels Like 63.5 °F
N
0.0
Wind Variable Wind from West
Gusts 0.0 mph

Today
High -- | Low -- °F
--% Chance of Precip.
Yesterday
High -- | Low -- °F
Precip. -- in
6:13 AM 8:00 PM
First Quarter, 54% visible
Pressure 29.86 in
Visibility 6.2 miles
Clouds Scattered Clouds 3900 ft
Scattered Clouds 4300 ft
Overcast 7600 ft
Dew Point 63 °F
Humidity 98%
Rainfall 0.00 in
Snow Depth Not available.
UV 0 out of 12
Pollen Not available.
Air Quality Not available.
Flu Activity Not available.
METAR YWLM 271300Z AUTO 24003KT 9999 // SCT039 SCT043 OVC076 18/18 Q1011

More Conditions Fewer Conditions

Pressure 29.86 in
Visibility 6.2 miles
Clouds Scattered Clouds 3900 ft
Scattered Clouds 4300 ft
Overcast 7600 ft
Dew Point 63 °F
Humidity 98%
Rainfall 0.00 in
Snow Depth Not available.
UV 0 out of 12
Pollen Not available.
Air Quality Not available.
Flu Activity Not available.
METAR YWLM 271300Z AUTO 24003KT 9999 // SCT039 SCT043 OVC076 18/18 Q1011

More Conditions Fewer Conditions

10-Day Weather Forecast

Almanac

Astronomy

Jan. 28, 2015 Rise Set
Actual Time
Civil Twilight
Nautical Twilight
Astronomical Twilight
Moon
Length of Visible Light
Length of Day
Tomorrow will be .
, % of the Moon is Illuminated

Today's Extremes

Country Highs Country Lows

Community

WunderPhotos

Upload Photos

1,790,614 photos uploaded!

WunderBlogs® & News

Nearby

Air Quality

  Air Quality AQ Index Pollutant
Not available.

Snow Depth

Station Depth Elevation

Earthquake Activity

City Distance Mag. Time & Date
Minimum magnitude displayed is 2.5.

Coastal Water Temperatures

Place Temperature

Nearby Weather Stations